Time;durP1;ratioP1;P1;durP2;ratioP2;P2;SDS_P1;SDS_P2;PMS_P1;PMS_P2;Temp;Humidity;BMP_temperature;BMP_pressure;BME280_temperature;BME280_humidity;BME280_pressure;Samples;Min_cycle;Max_cycle;Signal;HPM_P1;HPM_P2
2023/08/09 00:02:09;;;;;;;1.30;1.20;;;14.90;99.90;;;;;;5151628;28;20243;-65
2023/08/09 00:04:42;;;;;;;1.60;1.50;;;14.90;99.90;;;;;;5187457;28;20041;-62
2023/08/09 00:07:16;;;;;;;1.42;1.33;;;14.90;99.90;;;;;;5190826;28;20406;-67
2023/08/09 00:09:53;;;;;;;1.50;1.40;;;14.90;99.90;;;;;;5205787;28;20043;-62
2023/08/09 00:12:27;;;;;;;1.42;1.33;;;14.90;1.00;;;;;;5185960;28;20488;-66
2023/08/09 00:15:02;;;;;;;1.38;1.27;;;14.90;1.00;;;;;;5168954;28;20045;-65
2023/08/09 00:17:38;;;;;;;1.30;1.20;;;14.80;1.00;;;;;;5120285;28;20031;-62
2023/08/09 00:20:13;;;;;;;1.38;1.27;;;14.70;1.00;;;;;;5120314;28;20041;-65
2023/08/09 00:22:47;;;;;;;1.40;1.30;;;14.70;1.00;;;;;;5170468;28;20057;-66
2023/08/09 00:25:19;;;;;;;1.27;1.17;;;14.60;1.00;;;;;;5171413;28;20499;-64
2023/08/09 00:27:51;;;;;;;1.40;1.30;;;14.50;1.00;;;;;;5161952;28;20040;-63
2023/08/09 00:30:22;;;;;;;2.60;1.30;;;14.50;1.00;;;;;;5168590;28;20613;-66
2023/08/09 00:32:54;;;;;;;1.75;1.55;;;14.40;98.20;;;;;;5118739;28;20035;-63
2023/08/09 00:35:28;;;;;;;1.73;1.48;;;14.30;99.90;;;;;;5135501;28;20043;-65
2023/08/09 00:38:00;;;;;;;1.77;1.60;;;14.20;99.90;;;;;;5187999;28;20067;-65
2023/08/09 00:40:31;;;;;;;1.77;1.40;;;14.30;99.90;;;;;;5152063;28;20137;-65
2023/08/09 00:43:08;;;;;;;1.20;1.02;;;14.30;99.90;;;;;;5101486;29;20043;-66
2023/08/09 00:45:44;;;;;;;1.45;1.35;;;14.30;99.90;;;;;;5147254;28;20271;-68
2023/08/09 00:48:19;;;;;;;1.30;1.20;;;14.50;99.90;;;;;;5163900;28;20044;-62
2023/08/09 00:50:51;;;;;;;1.70;1.10;;;14.50;99.90;;;;;;5161918;28;20039;-65
2023/08/09 00:53:25;;;;;;;1.73;1.30;;;14.40;99.90;;;;;;5104693;29;20244;-68
2023/08/09 00:56:00;;;;;;;;;;;14.50;90.50;;;;;;5156625;28;20047;-63
2023/08/09 00:58:31;;;;;;;1.60;1.35;;;14.40;99.90;;;;;;5209957;28;20535;-62
2023/08/09 01:03:42;;;;;;;1.50;1.35;;;14.50;99.90;;;;;;5238867;28;20059;-63
2023/08/09 01:06:51;;;;;;;1.20;1.13;;;14.50;99.90;;;;;;5220541;28;20041;-64
2023/08/09 01:10:03;;;;;;;1.60;1.38;;;14.50;99.90;;;;;;5207181;28;20116;-65
2023/08/09 01:12:45;;;;;;;1.77;1.50;;;14.60;99.90;;;;;;5191383;28;20043;-68
2023/08/09 01:15:21;;;;;;;2.20;1.48;;;14.50;99.90;;;;;;5221921;28;20044;-66
2023/08/09 01:17:55;;;;;;;1.48;1.38;;;14.60;1.00;;;;;;5201920;28;20079;-65
2023/08/09 01:20:27;;;;;;;4.13;1.33;;;14.70;1.00;;;;;;5225032;28;20670;-66
2023/08/09 01:23:15;;;;;;;1.35;1.25;;;14.70;1.00;;;;;;5224163;28;20040;-62
2023/08/09 01:25:50;;;;;;;1.70;1.60;;;14.90;99.90;;;;;;5240945;28;20048;-63
2023/08/09 01:28:21;;;;;;;1.45;1.35;;;15.10;1.00;;;;;;5226959;28;20032;-62
2023/08/09 01:30:57;;;;;;;1.40;1.30;;;15.20;99.90;;;;;;5218978;28;20041;-65
2023/08/09 01:33:33;;;;;;;2.38;1.40;;;15.30;5.40;;;;;;5224024;28;20439;-63
2023/08/09 01:36:17;;;;;;;1.48;1.30;;;15.40;1.00;;;;;;5223795;28;20032;-66
2023/08/09 01:39:00;;;;;;;1.33;1.23;;;15.40;1.00;;;;;;5225040;28;20032;-63
2023/08/09 01:41:35;;;;;;;2.13;1.05;;;15.50;1.00;;;;;;5203849;28;20045;-64
2023/08/09 01:44:07;;;;;;;2.10;1.20;;;15.60;1.00;;;;;;5203532;28;20033;-63
2023/08/09 01:46:46;;;;;;;1.48;1.35;;;15.60;1.00;;;;;;5232357;28;20039;-62
2023/08/09 01:49:24;;;;;;;1.27;1.17;;;15.60;1.00;;;;;;5193681;28;20048;-64
2023/08/09 01:51:56;;;;;;;2.42;1.42;;;15.70;1.00;;;;;;5217272;28;20028;-62
2023/08/09 01:54:34;;;;;;;1.30;1.20;;;15.80;1.00;;;;;;5212788;28;20482;-64
2023/08/09 01:57:12;;;;;;;1.80;1.30;;;15.80;1.00;;;;;;5218540;28;20386;-64
2023/08/09 01:59:44;;;;;;;1.60;1.40;;;15.80;1.00;;;;;;5232546;28;20043;-66
2023/08/09 02:02:16;;;;;;;1.30;1.20;;;15.80;1.00;;;;;;5240693;28;20042;-63
2023/08/09 02:04:48;;;;;;;1.73;1.10;;;15.70;1.00;;;;;;5227139;28;20365;-64
2023/08/09 02:07:22;;;;;;;1.30;1.20;;;15.70;65.60;;;;;;5210673;28;20361;-63
2023/08/09 02:09:54;;;;;;;1.38;1.15;;;15.50;1.00;;;;;;5210807;28;20046;-64
2023/08/09 02:12:27;;;;;;;1.65;1.55;;;15.60;1.00;;;;;;5244170;28;20043;-64
2023/08/09 02:15:01;;;;;;;1.50;1.40;;;15.60;1.00;;;;;;5243540;28;20048;-64
2023/08/09 02:17:34;;;;;;;1.50;1.40;;;15.70;1.00;;;;;;5207927;28;20040;-67
2023/08/09 02:20:07;;;;;;;1.70;1.25;;;15.70;1.00;;;;;;5243761;28;20042;-64
2023/08/09 02:22:43;;;;;;;1.77;1.38;;;15.70;1.00;;;;;;5243706;28;20054;-66
2023/08/09 02:25:21;;;;;;;1.45;1.35;;;15.70;99.90;;;;;;5210071;28;20046;-62
2023/08/09 02:27:54;;;;;;;1.38;1.27;;;15.60;99.90;;;;;;5240410;28;20056;-64
2023/08/09 02:30:29;;;;;;;1.35;1.25;;;15.50;1.00;;;;;;5224771;28;20594;-65
2023/08/09 02:33:01;;;;;;;1.38;1.30;;;15.50;1.00;;;;;;5243832;28;20032;-65
2023/08/09 02:35:57;;;;;;;2.25;1.63;;;15.50;1.00;;;;;;5209672;28;20031;-63
2023/08/09 02:38:32;;;;;;;1.50;1.40;;;15.40;1.00;;;;;;5243203;28;20340;-66
2023/08/09 02:41:04;;;;;;;1.80;1.38;;;15.40;60.40;;;;;;5210794;28;20056;-65
2023/08/09 02:43:43;;;;;;;3.40;1.48;;;15.30;99.90;;;;;;5242347;28;20363;-66
2023/08/09 02:46:14;;;;;;;1.38;1.25;;;15.30;99.90;;;;;;5238461;28;20040;-64
2023/08/09 02:48:49;;;;;;;1.40;1.30;;;15.40;99.90;;;;;;5189508;28;20044;-68
2023/08/09 02:51:24;;;;;;;;;;;15.40;99.90;;;;;;5249830;28;20031;-64
2023/08/09 02:54:08;;;;;;;1.48;1.38;;;15.40;99.90;;;;;;5253358;28;19950;-67
2023/08/09 02:56:39;;;;;;;1.50;1.40;;;15.50;99.90;;;;;;5239989;28;20557;-65
2023/08/09 02:59:17;;;;;;;1.25;1.10;;;15.40;1.00;;;;;;5231936;28;20040;-64
2023/08/09 03:01:52;;;;;;;1.70;1.60;;;15.50;99.90;;;;;;5226402;28;20465;-66
2023/08/09 03:04:30;;;;;;;1.60;1.50;;;15.40;1.00;;;;;;5206781;28;20037;-67
2023/08/09 03:07:02;;;;;;;1.65;1.55;;;15.50;1.00;;;;;;5206256;28;20045;-66
2023/08/09 03:09:40;;;;;;;3.25;1.33;;;15.40;1.00;;;;;;5189953;28;20044;-67
2023/08/09 03:12:12;;;;;;;1.52;1.15;;;15.40;1.00;;;;;;5241964;28;20058;-68
2023/08/09 03:14:44;;;;;;;1.55;1.02;;;15.50;1.00;;;;;;5224402;28;20352;-66
2023/08/09 03:17:15;;;;;;;1.25;1.15;;;15.40;1.00;;;;;;5240649;28;20048;-67
2023/08/09 03:19:53;;;;;;;1.20;1.10;;;15.40;99.90;;;;;;5242641;28;20040;-66
2023/08/09 03:22:25;;;;;;;1.55;1.45;;;15.50;1.00;;;;;;5244603;28;20027;-65
2023/08/09 03:24:59;;;;;;;1.40;1.30;;;15.40;1.00;;;;;;5243729;28;20454;-67
2023/08/09 03:27:31;;;;;;;;;;;15.30;99.90;;;;;;5237270;28;20487;-64
2023/08/09 03:30:05;;;;;;;2.67;1.60;;;15.30;1.00;;;;;;5269976;28;19912;-67
2023/08/09 03:32:37;;;;;;;;;;;15.20;1.00;;;;;;5251008;28;20049;-69
2023/08/09 03:35:12;;;;;;;1.40;1.30;;;15.20;1.00;;;;;;5227031;28;20258;-67
2023/08/09 03:37:43;;;;;;;1.63;1.52;;;15.30;1.00;;;;;;5223271;28;20036;-65
2023/08/09 03:40:16;;;;;;;1.55;1.45;;;15.20;1.00;;;;;;5210527;28;20034;-64
2023/08/09 03:42:47;;;;;;;1.25;1.15;;;15.20;16.20;;;;;;5210906;28;20055;-67
2023/08/09 03:45:22;;;;;;;2.03;1.83;;;15.20;1.00;;;;;;5240055;28;20042;-64
2023/08/09 03:47:54;;;;;;;;;;;15.20;1.00;;;;;;5209905;28;20046;-66
2023/08/09 03:50:25;;;;;;;1.88;1.50;;;15.20;1.00;;;;;;5229623;28;19922;-65
2023/08/09 03:53:00;;;;;;;2.10;1.50;;;15.30;1.00;;;;;;5243992;28;20371;-65
2023/08/09 03:55:34;;;;;;;3.67;1.30;;;15.30;1.00;;;;;;5230273;28;20050;-67
2023/08/09 03:58:14;;;;;;;1.60;1.50;;;15.20;81.90;;;;;;5258238;28;20046;-64
2023/08/09 04:00:48;;;;;;;2.05;1.60;;;15.20;1.00;;;;;;5191087;28;20044;-65
2023/08/09 04:03:24;;;;;;;1.85;1.75;;;15.20;1.00;;;;;;5233405;28;20044;-66
2023/08/09 04:05:58;;;;;;;1.90;1.58;;;15.20;1.00;;;;;;5227168;28;20048;-65
2023/08/09 04:08:30;;;;;;;2.20;1.48;;;15.30;1.00;;;;;;5242748;28;20059;-64
2023/08/09 04:11:07;;;;;;;1.70;1.38;;;15.40;1.00;;;;;;5227955;28;20035;-64
2023/08/09 04:13:39;;;;;;;2.40;1.42;;;15.40;1.00;;;;;;5230432;28;20032;-65
2023/08/09 04:16:13;;;;;;;3.58;1.40;;;15.30;1.00;;;;;;5211510;28;20044;-66
2023/08/09 04:18:49;;;;;;;;;;;15.30;1.00;;;;;;5245338;28;20043;-63
2023/08/09 04:21:21;;;;;;;1.60;1.38;;;15.30;1.00;;;;;;5245848;28;20135;-66
2023/08/09 04:23:58;;;;;;;2.67;1.40;;;15.30;1.00;;;;;;5247051;28;20047;-63
2023/08/09 04:26:30;;;;;;;1.92;1.42;;;15.30;93.50;;;;;;5232084;28;20040;-62
2023/08/09 04:29:04;;;;;;;1.48;1.38;;;15.30;1.00;;;;;;5243044;28;20040;-66
2023/08/09 04:31:38;;;;;;;;;;;15.50;1.00;;;;;;5224895;28;20064;-66
2023/08/09 04:34:13;;;;;;;2.50;1.67;;;15.40;1.00;;;;;;5245974;28;19915;-64
2023/08/09 04:36:52;;;;;;;3.28;1.63;;;15.50;1.00;;;;;;5212916;28;20054;-64
2023/08/09 04:39:30;;;;;;;1.67;1.40;;;15.60;1.00;;;;;;5245700;28;20039;-66
2023/08/09 04:42:03;;;;;;;1.50;1.40;;;15.60;1.00;;;;;;5246871;28;20044;-65
2023/08/09 04:44:40;;;;;;;1.73;1.40;;;15.70;1.00;;;;;;5245449;28;20047;-66
2023/08/09 04:47:12;;;;;;;1.33;1.20;;;15.80;1.00;;;;;;5261190;28;20044;-63
2023/08/09 04:49:46;;;;;;;3.90;1.70;;;15.80;1.00;;;;;;5227750;28;20032;-65
2023/08/09 04:52:21;;;;;;;1.27;1.17;;;15.80;1.00;;;;;;5246220;28;20344;-63
2023/08/09 04:54:55;;;;;;;;;;;15.90;1.00;;;;;;5264668;28;20044;-64
2023/08/09 04:57:32;;;;;;;1.52;1.30;;;15.90;99.90;;;;;;5199940;28;19908;-67
2023/08/09 05:00:10;;;;;;;1.40;1.30;;;16.00;99.90;;;;;;5239663;28;20049;-67
2023/08/09 05:02:47;;;;;;;1.42;1.33;;;16.00;99.90;;;;;;5226558;28;20039;-66
2023/08/09 05:05:18;;;;;;;1.83;1.42;;;16.00;1.00;;;;;;5227518;28;20031;-66
2023/08/09 05:07:50;;;;;;;1.88;1.40;;;16.00;1.00;;;;;;5256314;28;20393;-66
2023/08/09 05:10:25;;;;;;;1.55;1.38;;;16.10;99.90;;;;;;5249865;28;20044;-65
2023/08/09 05:13:00;;;;;;;1.48;1.10;;;16.20;99.90;;;;;;5258255;28;20035;-64
2023/08/09 05:15:32;;;;;;;1.52;1.20;;;16.20;1.00;;;;;;5240803;28;20100;-66
2023/08/09 05:18:10;;;;;;;1.50;1.40;;;16.30;1.00;;;;;;5233344;28;20143;-64
2023/08/09 05:20:45;;;;;;;1.48;1.38;;;16.40;1.00;;;;;;5250060;28;20046;-64
2023/08/09 05:23:20;;;;;;;1.67;1.58;;;16.50;1.00;;;;;;5249245;28;20052;-61
2023/08/09 05:25:55;;;;;;;3.55;1.55;;;16.50;1.00;;;;;;5266687;28;20039;-65
2023/08/09 05:28:26;;;;;;;2.55;1.95;;;16.60;1.00;;;;;;5245460;28;20043;-62
2023/08/09 05:31:01;;;;;;;1.13;1.10;;;16.50;1.00;;;;;;5238330;28;20038;-64
2023/08/09 05:33:32;;;;;;;1.95;1.75;;;16.60;1.00;;;;;;5262524;28;20028;-64
2023/08/09 05:36:11;;;;;;;1.58;1.48;;;16.70;1.00;;;;;;5262020;28;20028;-64
2023/08/09 05:38:45;;;;;;;2.78;1.42;;;16.60;95.70;;;;;;5228899;28;20044;-64
2023/08/09 05:41:17;;;;;;;2.05;1.50;;;16.80;1.00;;;;;;5244630;28;20051;-65
2023/08/09 05:43:51;;;;;;;3.55;1.65;;;16.90;1.00;;;;;;5227714;28;20036;-65
2023/08/09 05:46:24;;;;;;;3.75;1.50;;;16.90;16.50;;;;;;5223103;28;20328;-61
2023/08/09 05:48:58;;;;;;;3.90;1.55;;;16.90;99.90;;;;;;5261156;28;20028;-64
2023/08/09 05:51:33;;;;;;;;;;;16.80;99.90;;;;;;5228282;28;20220;-68
2023/08/09 05:54:07;;;;;;;5.75;1.40;;;16.80;1.00;;;;;;5246225;28;19916;-64
2023/08/09 05:56:43;;;;;;;1.58;1.48;;;16.90;99.90;;;;;;5239606;28;20066;-66
2023/08/09 05:59:22;;;;;;;1.42;1.27;;;17.00;67.70;;;;;;5243550;28;20052;-66
2023/08/09 06:02:00;;;;;;;1.40;1.20;;;17.10;1.00;;;;;;5245536;28;20269;-64
2023/08/09 06:04:34;;;;;;;1.40;1.30;;;17.20;1.00;;;;;;5225947;28;20044;-63
2023/08/09 06:07:05;;;;;;;1.23;1.13;;;17.40;1.00;;;;;;5223668;28;20040;-68
2023/08/09 06:09:39;;;;;;;6.95;1.40;;;17.30;1.00;;;;;;5239072;28;20046;-64
2023/08/09 06:12:14;;;;;;;2.58;1.58;;;17.40;1.00;;;;;;5207073;28;20245;-66
2023/08/09 06:14:48;;;;;;;1.58;1.30;;;17.50;1.00;;;;;;5235607;28;20028;-66
2023/08/09 06:17:20;;;;;;;4.05;1.60;;;17.40;1.00;;;;;;5238211;28;20043;-66
2023/08/09 06:19:52;;;;;;;1.55;1.45;;;17.40;1.00;;;;;;5242942;28;20050;-65
2023/08/09 06:22:26;;;;;;;1.15;1.10;;;17.40;99.90;;;;;;5226390;28;20450;-66
2023/08/09 06:24:58;;;;;;;5.40;1.30;;;17.40;99.90;;;;;;5246850;28;20052;-66
2023/08/09 06:27:29;;;;;;;1.33;1.23;;;17.50;99.90;;;;;;5241055;28;20024;-65
2023/08/09 06:30:06;;;;;;;2.25;1.67;;;17.70;99.90;;;;;;5222177;28;20046;-65
2023/08/09 06:32:42;;;;;;;2.17;1.20;;;17.80;99.90;;;;;;5225103;28;20040;-65
2023/08/09 06:35:19;;;;;;;1.70;1.60;;;17.80;93.70;;;;;;5208250;28;20027;-63
2023/08/09 06:37:52;;;;;;;2.88;1.30;;;17.90;1.00;;;;;;5225889;28;20058;-66
2023/08/09 06:40:24;;;;;;;1.98;1.63;;;18.00;1.00;;;;;;5240186;28;20058;-63
2023/08/09 06:42:59;;;;;;;2.05;1.55;;;18.20;1.00;;;;;;5261372;28;20024;-66
2023/08/09 06:45:38;;;;;;;1.42;1.33;;;18.50;1.00;;;;;;5236956;28;20039;-65
2023/08/09 06:48:15;;;;;;;4.55;1.65;;;18.70;99.90;;;;;;5240580;28;20050;-64
2023/08/09 06:50:49;;;;;;;3.80;1.67;;;18.90;99.90;;;;;;5210354;28;20044;-65
2023/08/09 06:53:23;;;;;;;;;;;18.90;99.90;;;;;;5238632;28;20054;-66
2023/08/09 06:55:57;;;;;;;2.15;1.75;;;18.90;99.90;;;;;;5226286;28;20110;-61
2023/08/09 06:58:29;;;;;;;2.22;1.50;;;18.80;55.80;;;;;;5205319;28;20046;-63
2023/08/09 07:01:09;;;;;;;2.90;1.60;;;18.80;99.90;;;;;;5222728;28;20041;-65
2023/08/09 07:03:43;;;;;;;1.63;1.17;;;18.70;99.90;;;;;;5243968;28;20438;-65
2023/08/09 07:06:15;;;;;;;3.80;1.60;;;18.60;43.60;;;;;;5259565;28;20354;-66
2023/08/09 07:08:53;;;;;;;1.30;1.20;;;18.80;99.90;;;;;;5251452;28;20031;-65
2023/08/09 07:11:24;;;;;;;1.95;1.70;;;18.90;52.30;;;;;;5244932;28;20050;-64
2023/08/09 07:13:56;;;;;;;1.50;1.35;;;18.90;1.00;;;;;;5260322;28;20050;-65
2023/08/09 07:16:28;;;;;;;3.78;1.75;;;18.90;1.00;;;;;;5255894;28;20343;-64
2023/08/09 07:18:59;;;;;;;2.65;1.60;;;19.00;1.00;;;;;;5255784;28;20033;-64
2023/08/09 07:21:35;;;;;;;2.40;1.60;;;19.20;1.00;;;;;;5217409;28;20041;-63
2023/08/09 07:24:08;;;;;;;2.10;1.70;;;19.50;1.00;;;;;;5228234;28;20229;-65
2023/08/09 07:26:43;;;;;;;3.67;1.90;;;19.90;1.00;;;;;;5242010;28;20348;-65
2023/08/09 07:29:14;;;;;;;;;;;20.50;1.00;;;;;;5225252;28;20153;-66
2023/08/09 07:31:49;;;;;;;4.57;2.22;;;20.80;1.00;;;;;;5238168;28;19931;-65
2023/08/09 07:34:24;;;;;;;2.30;1.35;;;20.80;99.90;;;;;;5209542;28;20048;-66
2023/08/09 07:36:55;;;;;;;2.00;1.58;;;20.80;99.90;;;;;;5242734;28;20055;-64
2023/08/09 07:39:29;;;;;;;2.60;1.70;;;20.50;30.00;;;;;;5260018;28;20054;-66
2023/08/09 07:42:01;;;;;;;2.45;1.38;;;20.00;82.90;;;;;;5225375;28;20050;-62
2023/08/09 07:44:32;;;;;;;1.70;1.60;;;19.60;52.00;;;;;;5242684;28;20047;-66
2023/08/09 07:47:06;;;;;;;2.35;1.38;;;19.70;99.90;;;;;;5237413;28;20043;-68
2023/08/09 07:49:41;;;;;;;1.83;1.50;;;19.90;99.90;;;;;;5223045;28;20037;-65
2023/08/09 07:52:16;;;;;;;1.92;1.40;;;20.20;99.90;;;;;;5235443;28;20363;-67
2023/08/09 07:54:50;;;;;;;2.17;1.42;;;20.60;1.00;;;;;;5225761;28;20229;-64
2023/08/09 07:57:22;;;;;;;;;;;20.80;1.00;;;;;;5260165;28;20032;-65
2023/08/09 07:59:59;;;;;;;4.75;1.40;;;20.90;99.90;;;;;;5258907;28;19916;-66
2023/08/09 08:02:33;;;;;;;3.92;1.85;;;21.00;99.90;;;;;;5226799;28;20260;-66
2023/08/09 08:05:06;;;;;;;3.70;1.80;;;21.10;99.90;;;;;;5222011;28;20045;-67
2023/08/09 08:07:39;;;;;;;2.15;1.90;;;21.00;99.90;;;;;;5239248;28;20047;-66
2023/08/09 08:10:15;;;;;;;1.48;1.38;;;20.80;5.10;;;;;;5221983;28;20042;-67
2023/08/09 08:12:51;;;;;;;4.65;1.70;;;20.90;99.90;;;;;;5239891;28;20036;-63
2023/08/09 08:15:25;;;;;;;4.28;1.90;;;21.10;99.90;;;;;;5204727;28;20168;-67
2023/08/09 08:17:57;;;;;;;2.10;1.40;;;21.30;99.90;;;;;;5208364;28;20032;-66
2023/08/09 08:20:29;;;;;;;3.97;1.90;;;21.30;99.90;;;;;;5235282;28;20032;-63
2023/08/09 08:23:01;;;;;;;1.80;1.70;;;21.20;99.90;;;;;;5263681;28;20312;-62
2023/08/09 08:25:33;;;;;;;3.13;1.77;;;20.90;1.00;;;;;;5225519;28;20044;-65
2023/08/09 08:28:06;;;;;;;5.20;1.70;;;20.60;1.00;;;;;;5235023;28;20051;-68
2023/08/09 08:30:38;;;;;;;3.10;1.98;;;20.60;99.90;;;;;;5224127;28;20047;-65
2023/08/09 08:33:15;;;;;;;2.05;1.50;;;20.60;99.90;;;;;;5245830;28;20028;-65
2023/08/09 08:35:48;;;;;;;5.28;1.98;;;20.20;1.00;;;;;;5228909;28;20065;-65
2023/08/09 08:38:19;;;;;;;4.10;1.83;;;19.60;99.90;;;;;;5225831;28;20201;-67
2023/08/09 08:40:55;;;;;;;1.50;1.40;;;18.90;99.90;;;;;;5258348;28;20033;-68
2023/08/09 08:43:27;;;;;;;1.70;1.60;;;18.60;1.00;;;;;;5240052;28;20044;-68
2023/08/09 08:45:59;;;;;;;2.72;1.63;;;18.20;99.90;;;;;;5241731;28;20028;-67
2023/08/09 08:48:36;;;;;;;3.65;1.77;;;17.80;1.00;;;;;;5244280;28;20032;-68
2023/08/09 08:51:12;;;;;;;2.70;1.58;;;17.50;1.00;;;;;;5226571;28;20044;-67
2023/08/09 08:53:45;;;;;;;5.38;2.70;;;17.20;1.00;;;;;;5236132;28;20038;-67
2023/08/09 08:56:20;;;;;;;2.70;2.10;;;16.90;1.00;;;;;;5243705;28;20047;-65
2023/08/09 08:58:58;;;;;;;5.65;2.33;;;16.80;1.00;;;;;;5227304;28;20051;-66
2023/08/09 09:01:37;;;;;;;5.85;2.35;;;16.60;99.90;;;;;;5248878;28;20046;-68
2023/08/09 09:04:08;;;;;;;2.45;2.13;;;16.50;99.90;;;;;;5238475;28;20024;-69
2023/08/09 09:06:41;;;;;;;4.40;2.00;;;16.30;99.90;;;;;;5263100;28;20032;-67
2023/08/09 09:09:14;;;;;;;4.75;2.15;;;16.40;99.90;;;;;;5228852;28;20044;-67
2023/08/09 09:11:45;;;;;;;3.53;2.35;;;16.50;99.90;;;;;;5228802;28;20419;-65
2023/08/09 09:14:20;;;;;;;2.63;2.00;;;16.60;99.90;;;;;;5262864;28;20039;-65
2023/08/09 09:16:55;;;;;;;3.97;2.60;;;16.60;99.90;;;;;;5223543;28;20054;-65
2023/08/09 09:19:32;;;;;;;;;;;16.70;99.90;;;;;;5206743;28;20040;-67
2023/08/09 09:22:06;;;;;;;4.18;1.90;;;16.70;99.90;;;;;;5223894;28;19918;-66
2023/08/09 09:24:39;;;;;;;3.58;1.90;;;16.70;99.90;;;;;;5207887;28;20043;-69
2023/08/09 09:27:13;;;;;;;1.88;1.67;;;16.70;99.90;;;;;;5220344;28;20040;-68
2023/08/09 09:29:45;;;;;;;4.60;2.20;;;16.60;99.90;;;;;;5262993;28;20042;-68
2023/08/09 09:32:20;;;;;;;4.93;1.75;;;16.40;99.90;;;;;;5239692;28;20209;-65
2023/08/09 09:34:51;;;;;;;1.67;1.45;;;16.50;99.90;;;;;;5262547;28;20245;-67
2023/08/09 09:37:29;;;;;;;2.55;2.20;;;16.40;99.90;;;;;;5254476;28;20032;-66
2023/08/09 09:40:10;;;;;;;4.82;1.83;;;16.30;99.90;;;;;;5248864;28;20250;-67
2023/08/09 09:42:42;;;;;;;1.75;1.55;;;16.30;99.90;;;;;;5236827;28;20293;-66
2023/08/09 09:45:25;;;;;;;2.22;2.00;;;16.30;99.90;;;;;;5218643;28;20074;-66
2023/08/09 09:48:00;;;;;;;2.00;1.83;;;16.40;99.90;;;;;;5255352;28;20021;-67
2023/08/09 09:50:33;;;;;;;4.85;2.70;;;16.40;99.90;;;;;;5235577;28;20047;-64
2023/08/09 09:53:06;;;;;;;3.42;2.03;;;16.60;99.90;;;;;;5238686;28;20309;-64
2023/08/09 09:55:43;;;;;;;2.13;1.75;;;16.60;99.90;;;;;;5246251;28;20048;-65
2023/08/09 09:58:18;;;;;;;2.83;2.15;;;16.60;99.90;;;;;;5230006;28;20586;-66
2023/08/09 10:00:55;;;;;;;2.53;1.70;;;16.50;99.90;;;;;;5247208;28;20032;-67
2023/08/09 10:03:31;;;;;;;2.50;1.98;;;16.40;99.90;;;;;;5257741;28;20058;-66
2023/08/09 10:06:06;;;;;;;2.42;2.05;;;16.40;99.90;;;;;;5231285;28;20048;-66
2023/08/09 10:08:38;;;;;;;5.38;1.90;;;16.40;99.90;;;;;;5245611;28;20040;-67
2023/08/09 10:11:12;;;;;;;2.95;1.80;;;16.50;99.90;;;;;;5240902;28;20043;-67
2023/08/09 10:13:46;;;;;;;2.70;2.08;;;16.60;99.90;;;;;;5235612;28;20050;-69
2023/08/09 10:16:21;;;;;;;2.50;1.75;;;16.80;99.90;;;;;;5242623;28;20043;-67
2023/08/09 10:19:33;;;;;;;2.28;2.00;;;16.80;99.90;;;;;;5234082;28;20052;-68
2023/08/09 10:22:05;;;;;;;3.55;1.90;;;16.70;99.90;;;;;;5186793;28;20050;-68
2023/08/09 10:24:44;;;;;;;2.20;1.85;;;17.00;99.90;;;;;;5160867;28;20046;-67
2023/08/09 10:27:53;;;;;;;2.15;2.00;;;17.10;99.90;;;;;;5160247;28;20061;-69
2023/08/09 10:30:31;;;;;;;3.88;2.20;;;17.10;99.90;;;;;;5132046;28;20169;-67
2023/08/09 10:33:03;;;;;;;2.92;2.00;;;17.10;99.90;;;;;;5155544;28;20342;-66
2023/08/09 10:35:56;;;;;;;2.20;2.00;;;17.10;99.90;;;;;;5139142;28;20046;-66
2023/08/09 10:38:30;;;;;;;2.60;1.80;;;17.10;99.90;;;;;;5158909;28;20393;-68
2023/08/09 10:41:09;;;;;;;2.90;2.05;;;17.00;99.90;;;;;;5176123;28;20082;-65
2023/08/09 10:43:43;;;;;;;4.53;2.00;;;17.10;99.90;;;;;;5148428;28;20223;-64
2023/08/09 10:46:24;;;;;;;2.00;1.77;;;16.90;99.90;;;;;;5144070;28;20054;-67
2023/08/09 10:49:05;;;;;;;2.22;2.03;;;16.70;99.90;;;;;;5148278;28;20250;-67
2023/08/09 10:51:46;;;;;;;2.83;2.35;;;16.70;99.90;;;;;;5157923;28;20052;-67
2023/08/09 10:54:21;;;;;;;2.05;1.67;;;16.90;99.90;;;;;;5155299;28;20049;-66
2023/08/09 10:56:53;;;;;;;2.00;1.80;;;17.10;99.90;;;;;;5143274;28;20282;-65
2023/08/09 10:59:25;;;;;;;2.38;1.80;;;17.20;99.90;;;;;;5221875;28;20032;-68
2023/08/09 11:01:59;;;;;;;3.22;1.92;;;17.20;99.90;;;;;;5212315;28;20399;-66
2023/08/09 11:04:34;;;;;;;1.80;1.70;;;17.30;99.90;;;;;;5223168;28;20044;-66
2023/08/09 11:07:19;;;;;;;1.80;1.70;;;17.30;99.90;;;;;;5222217;28;20032;-67
2023/08/09 11:09:53;;;;;;;1.95;1.60;;;17.40;99.90;;;;;;5205003;28;20032;-67
2023/08/09 11:12:29;;;;;;;1.77;1.30;;;17.50;99.90;;;;;;5209545;28;20044;-68
2023/08/09 11:15:03;;;;;;;2.05;1.45;;;17.60;99.90;;;;;;5242856;28;20303;-68
2023/08/09 11:17:37;;;;;;;;;;;17.70;99.90;;;;;;5257593;28;20230;-68
2023/08/09 11:20:13;;;;;;;3.78;1.70;;;17.70;99.90;;;;;;5208863;28;19908;-67
2023/08/09 11:23:08;;;;;;;1.70;1.60;;;17.60;99.90;;;;;;5220564;28;20116;-67
2023/08/09 11:25:45;;;;;;;;;;;17.60;99.90;;;;;;5221804;28;20028;-66
2023/08/09 11:28:20;;;;;;;1.73;1.60;;;17.50;99.90;;;;;;5259300;28;20207;-66
2023/08/09 11:30:54;;;;;;;1.48;1.38;;;17.40;99.90;;;;;;5211415;28;20044;-68
2023/08/09 11:33:28;;;;;;;2.15;1.95;;;17.40;99.90;;;;;;5234328;28;20492;-67
2023/08/09 11:36:00;;;;;;;;;;;17.60;99.90;;;;;;5222318;28;20043;-65
2023/08/09 11:38:36;;;;;;;3.60;1.80;;;18.10;99.90;;;;;;5221766;28;19951;-66
2023/08/09 11:41:15;;;;;;;2.88;1.80;;;18.40;99.90;;;;;;5211048;28;20024;-68
2023/08/09 11:43:48;;;;;;;2.00;1.77;;;18.60;99.90;;;;;;5204666;28;20043;-67
2023/08/09 11:46:26;;;;;;;1.65;1.33;;;18.50;99.90;;;;;;5230006;28;20499;-68
2023/08/09 11:49:05;;;;;;;3.25;1.70;;;18.30;99.90;;;;;;5243676;28;20483;-68
2023/08/09 11:51:37;;;;;;;1.50;1.40;;;18.10;99.90;;;;;;5240646;28;20042;-69
2023/08/09 11:54:12;;;;;;;2.42;2.10;;;18.10;99.90;;;;;;5241620;28;20048;-68
2023/08/09 11:56:45;;;;;;;1.98;1.77;;;17.80;99.90;;;;;;5224985;28;20070;-67
2023/08/09 11:59:26;;;;;;;2.05;1.67;;;17.60;99.90;;;;;;5225606;28;20474;-67
2023/08/09 12:02:01;;;;;;;1.80;1.70;;;17.30;99.90;;;;;;5239653;28;20060;-67
2023/08/09 12:04:33;;;;;;;5.47;1.73;;;17.20;99.90;;;;;;5208857;28;20047;-69
2023/08/09 12:07:09;;;;;;;2.17;1.73;;;17.40;99.90;;;;;;5241807;28;20036;-65
2023/08/09 12:09:46;;;;;;;2.30;2.00;;;17.30;99.90;;;;;;5266235;28;20039;-67
2023/08/09 12:12:36;;;;;;;2.22;1.58;;;17.30;99.90;;;;;;5250888;28;20043;-65
2023/08/09 12:15:12;;;;;;;2.65;1.92;;;17.20;99.90;;;;;;5209833;28;20063;-69
2023/08/09 12:17:51;;;;;;;2.00;1.80;;;17.30;99.90;;;;;;5245518;28;20050;-65
2023/08/09 12:20:23;;;;;;;2.88;2.13;;;17.60;99.90;;;;;;5237763;28;20464;-66
2023/08/09 12:23:00;;;;;;;2.53;1.83;;;17.70;99.90;;;;;;5217217;28;20493;-66
2023/08/09 12:25:34;;;;;;;2.33;1.90;;;17.60;99.90;;;;;;5239096;28;20048;-68
2023/08/09 12:28:07;;;;;;;3.90;2.22;;;17.80;99.90;;;;;;5245640;28;20210;-69
2023/08/09 12:30:44;;;;;;;2.25;1.98;;;17.90;99.90;;;;;;5262762;28;20039;-70
2023/08/09 12:33:20;;;;;;;2.42;1.85;;;18.00;99.90;;;;;;5245850;28;20028;-66
2023/08/09 12:35:53;;;;;;;2.20;1.80;;;18.00;99.90;;;;;;5233783;28;20639;-66
2023/08/09 12:38:28;;;;;;;2.20;2.03;;;18.10;99.90;;;;;;5217427;28;20380;-66
2023/08/09 12:41:05;;;;;;;3.13;2.05;;;18.20;99.90;;;;;;5226911;28;20329;-67
2023/08/09 12:43:38;;;;;;;4.60;2.05;;;18.30;99.90;;;;;;5243630;28;20024;-68
2023/08/09 12:46:09;;;;;;;2.65;2.25;;;18.60;99.90;;;;;;5242262;28;20031;-67
2023/08/09 12:48:48;;;;;;;1.60;1.50;;;18.80;99.90;;;;;;5223932;28;20051;-66
2023/08/09 12:51:23;;;;;;;1.98;1.55;;;19.20;99.90;;;;;;5236666;28;20245;-67
2023/08/09 12:53:57;;;;;;;1.95;1.75;;;19.20;99.90;;;;;;5223039;28;20040;-67
2023/08/09 12:56:30;;;;;;;2.22;2.00;;;19.20;80.60;;;;;;5219851;28;20503;-67
2023/08/09 12:59:05;;;;;;;1.80;1.40;;;19.20;67.20;;;;;;5207015;28;20044;-67
2023/08/09 13:01:38;;;;;;;3.35;1.67;;;19.20;99.90;;;;;;5221809;28;20494;-67
2023/08/09 13:04:09;;;;;;;1.75;1.60;;;19.00;1.00;;;;;;5242715;28;20599;-68
2023/08/09 13:06:41;;;;;;;1.67;1.55;;;18.80;1.00;;;;;;5260049;28;20244;-67
2023/08/09 13:09:15;;;;;;;1.85;1.75;;;18.40;1.00;;;;;;5245788;28;20029;-68
2023/08/09 13:11:50;;;;;;;1.73;1.63;;;18.50;99.90;;;;;;5233036;28;20024;-67
2023/08/09 13:14:21;;;;;;;1.95;1.75;;;18.60;99.90;;;;;;5227263;28;20032;-66
2023/08/09 13:16:53;;;;;;;5.53;1.95;;;18.60;99.90;;;;;;5256106;28;20036;-67
2023/08/09 13:19:38;;;;;;;1.80;1.67;;;18.70;1.00;;;;;;5242330;28;20046;-68
2023/08/09 13:22:12;;;;;;;2.67;1.77;;;18.60;1.00;;;;;;5244837;28;20036;-67
2023/08/09 13:24:47;;;;;;;4.45;1.65;;;18.60;1.00;;;;;;5244212;28;20048;-67
2023/08/09 13:27:21;;;;;;;1.88;1.70;;;18.60;1.00;;;;;;5236154;28;20098;-66
2023/08/09 13:29:54;;;;;;;1.90;1.80;;;18.70;1.00;;;;;;5260334;28;20032;-67
2023/08/09 13:32:28;;;;;;;2.20;2.00;;;18.80;1.00;;;;;;5244654;28;20044;-66
2023/08/09 13:34:59;;;;;;;1.60;1.50;;;19.20;1.00;;;;;;5262453;28;20102;-68
2023/08/09 13:37:34;;;;;;;1.77;1.50;;;20.00;1.00;;;;;;5243334;28;20048;-66
2023/08/09 13:40:09;;;;;;;;;;;20.70;1.00;;;;;;5242308;28;20048;-66